Time;durP1;ratioP1;P1;durP2;ratioP2;P2;SDS_P1;SDS_P2;PMS_P1;PMS_P2;Temp;Humidity;BMP_temperature;BMP_pressure;BME280_temperature;BME280_humidity;BME280_pressure;Samples;Min_cycle;Max_cycle;Signal;HPM_P1;HPM_P2
2022/07/11 00:02:02;;;;;;;5.70;3.55;;;;;;;22.94;57.66;99008.38;5012455;28;20037;-67
2022/07/11 00:04:29;;;;;;;15.90;5.60;;;;;;;22.90;58.12;99006.34;5012650;28;20481;-68
2022/07/11 00:06:55;;;;;;;7.93;4.15;;;;;;;22.86;57.91;99012.19;5010197;28;20497;-66
2022/07/11 00:09:20;;;;;;;6.45;4.28;;;;;;;22.86;58.00;99014.03;4994382;28;20059;-68
2022/07/11 00:11:46;;;;;;;7.80;3.55;;;;;;;22.84;58.33;99018.81;5010907;28;20076;-67
2022/07/11 00:14:12;;;;;;;7.35;4.05;;;;;;;22.78;58.18;99017.78;5010553;28;20412;-67
2022/07/11 00:16:37;;;;;;;9.43;4.68;;;;;;;22.74;58.30;99029.22;5012005;28;20037;-68
2022/07/11 00:19:04;;;;;;;12.90;4.15;;;;;;;22.70;58.27;99040.44;5011869;28;20393;-68
2022/07/11 00:21:30;;;;;;;6.82;3.95;;;;;;;22.71;58.29;99036.69;4993225;28;20058;-68
2022/07/11 00:23:56;;;;;;;8.27;4.22;;;;;;;22.69;58.53;99032.56;5011706;28;20505;-68
2022/07/11 00:26:22;;;;;;;4.50;3.53;;;;;;;22.69;58.51;99029.88;4993118;28;20413;-67
2022/07/11 00:28:47;;;;;;;7.75;3.95;;;;;;;22.68;58.51;99037.13;5010690;28;20030;-67
2022/07/11 00:31:13;;;;;;;5.78;4.05;;;;;;;22.72;58.47;99037.50;5011784;28;20108;-67
2022/07/11 00:33:38;;;;;;;5.95;4.10;;;;;;;22.74;58.51;99031.94;5011733;28;20176;-67
2022/07/11 00:36:04;;;;;;;42.10;6.72;;;;;;;22.75;58.29;99023.59;5011744;28;20037;-66
2022/07/11 00:38:30;;;;;;;5.63;3.88;;;;;;;22.75;58.45;99029.00;5011345;28;20128;-67
2022/07/11 00:40:55;;;;;;;7.13;4.03;;;;;;;22.75;58.37;99020.91;5010945;28;20038;-67
2022/07/11 00:43:30;;;;;;;6.90;3.63;;;;;;;22.77;58.02;99026.13;5008857;28;20041;-66
2022/07/11 00:45:55;;;;;;;4.75;3.83;;;;;;;22.77;58.21;99026.13;5011281;28;20042;-67
2022/07/11 00:48:21;;;;;;;7.13;3.72;;;;;;;22.72;58.39;99021.34;5009520;28;20048;-68
2022/07/11 00:50:46;;;;;;;5.70;3.28;;;;;;;22.67;58.52;99021.97;5012006;28;20065;-68
2022/07/11 00:53:12;;;;;;;5.72;3.60;;;;;;;22.69;58.37;99013.69;5012072;28;20049;-67
2022/07/11 00:55:38;;;;;;;7.68;3.80;;;;;;;22.69;58.50;99013.69;5012092;28;20044;-68
2022/07/11 00:58:03;;;;;;;10.85;4.55;;;;;;;22.67;58.58;99018.47;5012269;28;20045;-68
2022/07/11 01:00:29;;;;;;;7.78;3.55;;;;;;;22.65;58.58;99007.06;5012056;28;20026;-68
2022/07/11 01:02:55;;;;;;;6.50;3.75;;;;;;;22.63;58.88;99003.75;5015540;28;20037;-68
2022/07/11 01:05:20;;;;;;;4.63;3.05;;;;;;;22.63;58.66;99004.59;5014873;28;20038;-67
2022/07/11 01:07:46;;;;;;;6.68;4.20;;;;;;;22.62;58.76;98996.69;5015676;28;20604;-68
2022/07/11 01:10:11;;;;;;;4.82;3.40;;;;;;;22.65;58.40;98996.28;5010128;28;20045;-68
2022/07/11 01:12:37;;;;;;;6.53;3.70;;;;;;;22.67;58.54;98992.31;5015472;28;20081;-68
2022/07/11 01:15:03;;;;;;;11.88;3.90;;;;;;;22.67;58.49;98981.53;5016017;28;20452;-68
2022/07/11 01:17:29;;;;;;;4.80;3.25;;;;;;;22.70;58.29;98983.00;5015544;28;20037;-68
2022/07/11 01:19:54;;;;;;;5.30;3.05;;;;;;;22.75;57.95;98985.03;5015371;28;20114;-68
2022/07/11 01:22:24;;;;;;;7.25;3.38;;;;;;;22.77;57.93;98983.78;5015233;28;20124;-68
2022/07/11 01:24:49;;;;;;;6.47;2.83;;;;;;;22.81;57.90;98984.16;4997964;28;20044;-68
2022/07/11 01:27:15;;;;;;;5.43;3.90;;;;;;;22.81;57.98;98994.94;5014908;28;20030;-69
2022/07/11 01:29:41;;;;;;;7.53;3.38;;;;;;;22.81;57.67;98979.63;5015143;28;20555;-69
2022/07/11 01:32:10;;;;;;;4.55;3.55;;;;;;;22.86;57.53;98966.31;5014999;28;20041;-68
2022/07/11 01:34:35;;;;;;;7.30;3.28;;;;;;;22.91;57.30;98972.91;5014362;28;20123;-66
2022/07/11 01:37:01;;;;;;;7.25;3.30;;;;;;;22.93;57.32;98962.75;5014169;28;20057;-68
2022/07/11 01:39:29;;;;;;;4.07;2.97;;;;;;;22.92;57.26;98966.47;5015223;28;20088;-68
2022/07/11 01:41:58;;;;;;;6.32;3.25;;;;;;;22.90;57.18;98965.88;5015366;28;20087;-67
2022/07/11 01:44:24;;;;;;;6.53;2.95;;;;;;;22.88;57.30;98978.75;5015473;28;20117;-68
2022/07/11 01:46:49;;;;;;;4.43;3.33;;;;;;;22.89;57.19;98966.91;5014732;28;20084;-68
2022/07/11 01:49:15;;;;;;;6.97;3.50;;;;;;;22.93;56.70;98966.28;5015369;28;20042;-68
2022/07/11 01:51:41;;;;;;;6.40;4.00;;;;;;;23.00;57.02;98958.97;5001914;28;20117;-68
2022/07/11 01:54:06;;;;;;;4.80;3.00;;;;;;;23.07;56.52;98961.63;4995720;28;20552;-68
2022/07/11 01:56:33;;;;;;;4.80;3.15;;;;;;;23.06;56.44;98943.78;4995146;28;20050;-69
2022/07/11 01:58:59;;;;;;;6.93;3.63;;;;;;;23.04;56.60;98932.38;4995969;28;20027;-68
2022/07/11 02:01:26;;;;;;;8.25;3.05;;;;;;;23.03;56.23;98925.31;4995172;28;20030;-68
2022/07/11 02:03:53;;;;;;;5.45;3.20;;;;;;;23.02;56.39;98932.59;5008384;28;20034;-68
2022/07/11 02:06:19;;;;;;;6.63;2.97;;;;;;;22.98;56.22;98944.06;5014820;28;20037;-68
2022/07/11 02:08:44;;;;;;;5.78;3.00;;;;;;;22.98;56.55;98928.69;5014002;28;20358;-68
2022/07/11 02:11:10;;;;;;;10.85;3.67;;;;;;;22.97;56.20;98929.72;5014517;28;20129;-68
2022/07/11 02:13:35;;;;;;;5.43;3.10;;;;;;;22.96;56.46;98924.56;5014080;28;20097;-68
2022/07/11 02:16:02;;;;;;;8.13;3.53;;;;;;;22.92;56.41;98937.66;5014792;28;20144;-69
2022/07/11 02:18:28;;;;;;;9.52;3.72;;;;;;;22.89;56.71;98929.16;5013129;28;20078;-68
2022/07/11 02:20:54;;;;;;;5.63;3.80;;;;;;;22.86;56.63;98923.16;5013900;28;20113;-68
2022/07/11 02:23:20;;;;;;;8.20;3.30;;;;;;;22.88;56.65;98944.50;5014231;28;20060;-68
2022/07/11 02:25:46;;;;;;;5.75;3.50;;;;;;;22.91;56.47;98946.78;5014095;28;20033;-69
2022/07/11 02:28:13;;;;;;;5.57;3.33;;;;;;;22.96;56.17;98955.03;5013963;28;20116;-69
2022/07/11 02:30:41;;;;;;;5.88;3.13;;;;;;;23.01;56.24;98963.31;5012583;28;20396;-68
2022/07/11 02:33:08;;;;;;;8.63;4.35;;;;;;;23.03;55.96;98965.78;5013512;28;20509;-69
2022/07/11 02:35:35;;;;;;;4.63;3.03;;;;;;;23.05;56.01;98958.31;5014106;28;20038;-69
2022/07/11 02:38:01;;;;;;;4.15;3.20;;;;;;;23.07;55.92;98950.00;5014163;28;20436;-70
2022/07/11 02:40:27;;;;;;;8.63;3.58;;;;;;;23.11;55.84;98960.16;5014100;28;20030;-69
2022/07/11 02:42:53;;;;;;;5.38;3.25;;;;;;;23.14;55.52;98954.34;5011748;28;20036;-70
2022/07/11 02:45:19;;;;;;;6.68;3.47;;;;;;;23.16;55.54;98959.50;5014094;28;20037;-69
2022/07/11 02:47:45;;;;;;;3.90;3.30;;;;;;;23.16;55.41;98954.91;5012307;28;20076;-68
2022/07/11 02:50:12;;;;;;;4.60;3.45;;;;;;;23.14;55.67;98948.94;5013538;28;20042;-69
2022/07/11 02:52:39;;;;;;;8.18;3.10;;;;;;;23.11;55.45;98949.34;5013883;28;20038;-69
2022/07/11 02:55:07;;;;;;;5.15;3.55;;;;;;;23.06;55.77;98943.78;5006992;28;20037;-68
2022/07/11 02:57:32;;;;;;;7.88;3.80;;;;;;;23.02;55.42;98938.00;4999333;28;20037;-69
2022/07/11 02:59:58;;;;;;;5.78;3.45;;;;;;;23.06;55.27;98934.88;4996192;28;20036;-68
2022/07/11 03:02:23;;;;;;;5.32;3.15;;;;;;;23.09;55.58;98939.81;5013115;28;20041;-67
2022/07/11 03:04:49;;;;;;;3.67;3.20;;;;;;;23.11;55.36;98943.13;5013884;28;20029;-68
2022/07/11 03:07:16;;;;;;;7.70;3.78;;;;;;;23.10;55.52;98933.38;5013869;28;20041;-67
2022/07/11 03:09:41;;;;;;;6.55;2.97;;;;;;;23.08;55.51;98932.78;5013557;28;20037;-68
2022/07/11 03:12:07;;;;;;;9.98;3.85;;;;;;;23.09;55.34;98935.25;5013469;28;20144;-68
2022/07/11 03:14:33;;;;;;;5.97;3.28;;;;;;;23.08;55.41;98939.00;5013635;28;20026;-68
2022/07/11 03:16:58;;;;;;;5.13;3.25;;;;;;;23.06;55.29;98935.69;5013345;28;20034;-68
2022/07/11 03:19:24;;;;;;;4.28;2.90;;;;;;;23.08;55.41;98941.69;5014043;28;20034;-68
2022/07/11 03:21:49;;;;;;;6.70;3.38;;;;;;;23.26;55.14;98935.56;5013488;28;20057;-68
2022/07/11 03:24:14;;;;;;;6.65;3.83;;;;;;;23.58;54.47;98942.81;5012794;28;20390;-68
2022/07/11 03:26:40;;;;;;;5.95;3.97;;;;;;;23.89;53.93;98951.91;5012793;28;20030;-67
2022/07/11 03:29:07;;;;;;;6.00;3.90;;;;;;;24.10;53.49;98953.38;5012006;28;20025;-67
2022/07/11 03:31:33;;;;;;;6.45;3.95;;;;;;;24.13;53.29;98949.41;5013210;28;20033;-68
2022/07/11 03:33:59;;;;;;;5.82;3.80;;;;;;;24.06;53.10;98955.69;5013531;28;20057;-68
2022/07/11 03:36:24;;;;;;;5.25;3.47;;;;;;;23.92;53.35;98949.56;5013200;28;20061;-68
2022/07/11 03:38:50;;;;;;;6.57;3.47;;;;;;;23.92;53.33;98943.31;5028067;28;20095;-68
2022/07/11 03:41:15;;;;;;;6.05;3.67;;;;;;;23.96;53.27;98949.97;5032439;28;20085;-69
2022/07/11 03:43:41;;;;;;;8.98;4.35;;;;;;;23.90;53.61;98959.78;5012081;28;20034;-69
2022/07/11 03:46:06;;;;;;;4.55;3.72;;;;;;;23.92;53.60;98954.13;4994115;28;20048;-69
2022/07/11 03:48:32;;;;;;;6.45;3.58;;;;;;;24.03;53.72;98952.59;5005152;28;20439;-68
2022/07/11 03:50:58;;;;;;;4.43;3.47;;;;;;;24.17;53.18;98953.31;4993357;28;20093;-69
2022/07/11 03:53:23;;;;;;;4.55;3.47;;;;;;;24.28;53.18;98949.00;4993280;28;20125;-69
2022/07/11 03:55:49;;;;;;;6.72;3.95;;;;;;;24.31;52.94;98944.00;4993523;28;20117;-69
2022/07/11 03:58:14;;;;;;;8.20;3.90;;;;;;;24.34;53.07;98951.63;5005651;28;20112;-69
2022/07/11 04:00:40;;;;;;;4.47;4.00;;;;;;;24.32;52.61;98942.94;5012741;28;20033;-69
2022/07/11 04:03:06;;;;;;;7.10;3.70;;;;;;;24.29;52.76;98946.09;5012763;28;20033;-69
2022/07/11 04:05:31;;;;;;;4.32;3.70;;;;;;;24.27;52.72;98944.66;5011661;28;20497;-69
2022/07/11 04:07:57;;;;;;;7.88;3.80;;;;;;;24.22;52.58;98945.34;5012838;28;20040;-69
2022/07/11 04:10:23;;;;;;;5.07;3.70;;;;;;;24.20;52.97;98944.72;5011746;28;20123;-69
2022/07/11 04:12:49;;;;;;;6.60;3.40;;;;;;;24.18;52.98;98939.56;5012602;28;20053;-68
2022/07/11 04:15:14;;;;;;;6.57;3.35;;;;;;;24.25;53.16;98947.59;5012967;28;20036;-69
2022/07/11 04:17:40;;;;;;;7.03;4.40;;;;;;;24.25;53.14;98949.50;5012354;28;20042;-68
2022/07/11 04:20:06;;;;;;;7.47;3.60;;;;;;;24.25;53.27;98947.59;5012871;28;20053;-68
2022/07/11 04:22:31;;;;;;;8.25;4.03;;;;;;;24.26;52.84;98951.94;5012844;28;20485;-69
2022/07/11 04:24:57;;;;;;;5.13;3.92;;;;;;;24.27;53.31;98950.06;5012956;28;20044;-68
2022/07/11 04:27:24;;;;;;;7.70;3.40;;;;;;;24.30;53.05;98946.91;5000732;28;20050;-68
2022/07/11 04:29:49;;;;;;;6.20;3.55;;;;;;;24.32;53.06;98945.66;5012214;28;20037;-68
2022/07/11 04:32:15;;;;;;;5.45;3.58;;;;;;;24.36;52.58;98951.44;5012340;28;20091;-68
2022/07/11 04:34:40;;;;;;;7.60;4.95;;;;;;;24.39;52.48;98948.28;5010278;28;20038;-66
2022/07/11 04:37:06;;;;;;;8.00;3.95;;;;;;;24.45;52.70;98941.13;5016609;28;20065;-68
2022/07/11 04:39:34;;;;;;;9.48;3.85;;;;;;;24.59;52.41;98941.78;5016573;28;20034;-69
2022/07/11 04:42:03;;;;;;;8.82;4.38;;;;;;;24.88;51.65;98934.78;5016579;28;20091;-69
2022/07/11 04:44:28;;;;;;;11.82;4.05;;;;;;;25.28;50.71;98941.50;5016069;28;20042;-69
2022/07/11 04:46:54;;;;;;;9.98;3.95;;;;;;;25.61;49.87;98945.56;5015871;28;20048;-68
2022/07/11 04:49:19;;;;;;;5.90;3.65;;;;;;;25.90;49.41;98942.97;5016078;28;20033;-68
2022/07/11 04:51:45;;;;;;;8.20;3.80;;;;;;;26.19;48.65;98934.97;5000774;28;20041;-68
2022/07/11 04:54:11;;;;;;;9.10;3.92;;;;;;;26.47;48.19;98920.63;4996586;28;20038;-69
2022/07/11 04:56:37;;;;;;;5.50;4.18;;;;;;;26.72;47.22;98933.03;5015338;28;20061;-68
2022/07/11 04:59:03;;;;;;;8.10;3.90;;;;;;;26.96;46.98;98917.50;5016216;28;20038;-69
2022/07/11 05:01:29;;;;;;;6.32;3.70;;;;;;;27.15;46.52;98925.44;5015575;28;20038;-69
2022/07/11 05:03:55;;;;;;;6.25;3.85;;;;;;;27.19;46.35;98917.63;5015949;28;20440;-69
2022/07/11 05:06:21;;;;;;;5.70;4.32;;;;;;;27.10;46.51;98915.31;5016165;28;20029;-68
2022/07/11 05:08:47;;;;;;;8.30;4.05;;;;;;;27.16;46.23;98909.97;5014903;28;20026;-70
2022/07/11 05:11:12;;;;;;;6.97;4.10;;;;;;;27.25;46.34;98908.50;5015799;28;20040;-69
2022/07/11 05:13:37;;;;;;;6.85;4.38;;;;;;;27.38;46.00;98908.19;5015785;28;20068;-70
2022/07/11 05:16:03;;;;;;;9.30;3.95;;;;;;;27.41;45.71;98898.69;5005719;28;20026;-68
2022/07/11 05:18:29;;;;;;;7.07;4.47;;;;;;;27.48;45.68;98899.41;4995786;28;20041;-69
2022/07/11 05:20:55;;;;;;;9.98;3.88;;;;;;;27.63;45.44;98906.94;4997238;28;20033;-67
2022/07/11 05:23:20;;;;;;;7.90;3.78;;;;;;;27.85;45.03;98895.31;5007314;28;20041;-69
2022/07/11 05:25:45;;;;;;;8.30;4.10;;;;;;;28.09;44.45;98905.97;4996224;28;20026;-68
2022/07/11 05:28:11;;;;;;;7.82;3.40;;;;;;;28.29;44.11;98895.38;4995754;28;20038;-68
2022/07/11 05:30:37;;;;;;;5.28;3.75;;;;;;;28.33;44.25;98895.69;4996169;28;20073;-68
2022/07/11 05:33:02;;;;;;;9.80;3.92;;;;;;;28.37;44.38;98893.28;5011093;28;20058;-69
2022/07/11 05:35:28;;;;;;;4.60;3.10;;;;;;;28.44;44.04;98892.00;5015433;28;20084;-68
2022/07/11 05:37:53;;;;;;;7.18;3.50;;;;;;;28.57;43.19;98890.78;5003892;28;20521;-69
2022/07/11 05:40:19;;;;;;;5.15;3.30;;;;;;;28.65;43.00;98900.41;4995494;28;20424;-68
2022/07/11 05:42:45;;;;;;;4.25;3.13;;;;;;;28.69;43.22;98897.97;5007188;28;20455;-68
2022/07/11 05:45:11;;;;;;;3.90;3.13;;;;;;;28.69;43.27;98892.53;5015297;28;20041;-68
2022/07/11 05:47:37;;;;;;;5.78;3.78;;;;;;;28.69;43.00;98892.53;5014172;28;20038;-69
2022/07/11 05:50:03;;;;;;;4.65;3.03;;;;;;;28.72;43.07;98892.03;5014687;28;20069;-70
2022/07/11 05:52:28;;;;;;;6.90;3.60;;;;;;;28.75;42.69;98883.34;5014580;28;20037;-69
2022/07/11 05:54:54;;;;;;;7.13;3.20;;;;;;;28.74;43.15;98895.34;5008963;28;20126;-69
2022/07/11 05:57:19;;;;;;;7.15;3.80;;;;;;;28.66;42.32;98882.16;4995922;28;20049;-67
2022/07/11 05:59:46;;;;;;;5.38;3.42;;;;;;;28.62;42.34;98885.38;4995454;28;20030;-67
2022/07/11 06:02:12;;;;;;;4.40;3.30;;;;;;;28.59;42.54;98880.47;4998763;28;20040;-67
2022/07/11 06:04:37;;;;;;;5.55;3.33;;;;;;;28.48;42.72;98879.53;5010409;28;20109;-67
2022/07/11 06:07:03;;;;;;;5.53;3.53;;;;;;;28.45;42.36;98876.50;4995371;28;20508;-66
2022/07/11 06:09:29;;;;;;;4.47;3.33;;;;;;;28.38;42.69;98878.59;4995186;28;20080;-68
2022/07/11 06:11:55;;;;;;;12.95;3.25;;;;;;;28.23;43.11;98874.63;4994042;28;20034;-68
2022/07/11 06:14:21;;;;;;;4.88;3.20;;;;;;;28.18;43.05;98869.09;5013646;28;20125;-68
2022/07/11 06:16:46;;;;;;;15.10;3.40;;;;;;;28.18;43.09;98871.81;5014804;28;20037;-68
2022/07/11 06:19:14;;;;;;;6.05;4.00;;;;;;;28.19;42.89;98881.63;5014448;28;20045;-67
2022/07/11 06:21:40;;;;;;;5.63;3.10;;;;;;;28.15;43.23;98875.06;5013560;28;20025;-68
2022/07/11 06:24:06;;;;;;;6.70;4.18;;;;;;;28.05;43.90;98874.91;5013770;28;20041;-67
2022/07/11 06:26:31;;;;;;;7.07;3.15;;;;;;;27.91;44.24;98871.75;5014087;28;20056;-67
2022/07/11 06:28:57;;;;;;;6.72;3.15;;;;;;;27.79;44.13;98869.13;5012967;28;20034;-67
2022/07/11 06:31:22;;;;;;;6.38;3.70;;;;;;;27.61;44.34;98879.19;5014298;28;20031;-67
2022/07/11 06:33:54;;;;;;;6.50;3.50;;;;;;;27.46;44.65;98871.66;5013978;28;20042;-67
2022/07/11 06:36:22;;;;;;;6.90;4.43;;;;;;;27.38;44.87;98872.88;5014260;28;20038;-68
2022/07/11 06:38:48;;;;;;;13.45;3.20;;;;;;;27.32;45.13;98867.59;5012862;28;20083;-68
2022/07/11 06:41:14;;;;;;;5.20;3.60;;;;;;;27.27;45.32;98860.19;5014204;28;20034;-68
2022/07/11 06:43:39;;;;;;;6.55;3.42;;;;;;;27.22;45.51;98863.63;5014011;28;20064;-68
2022/07/11 06:46:05;;;;;;;10.93;4.38;;;;;;;27.19;45.50;98855.16;5014037;28;20038;-68
2022/07/11 06:48:30;;;;;;;11.40;4.40;;;;;;;27.15;45.61;98854.00;5027633;28;20548;-68
2022/07/11 06:50:56;;;;;;;5.43;3.88;;;;;;;27.11;45.49;98851.81;5033652;28;20053;-68
2022/07/11 06:53:21;;;;;;;6.45;3.47;;;;;;;27.09;45.54;98850.38;5014715;28;20046;-68
2022/07/11 06:55:47;;;;;;;9.23;4.72;;;;;;;27.08;45.55;98863.16;5000738;28;20034;-68
2022/07/11 06:58:31;;;;;;;8.60;4.07;;;;;;;27.04;45.44;98853.84;4994737;28;20034;-67
2022/07/11 07:00:57;;;;;;;5.95;3.47;;;;;;;27.03;45.67;98851.41;4994393;28;20038;-68
2022/07/11 07:03:22;;;;;;;4.85;3.13;;;;;;;27.04;45.38;98856.56;5004710;28;20042;-68
2022/07/11 07:05:48;;;;;;;7.05;3.45;;;;;;;27.03;45.64;98857.63;5013936;28;20367;-68
2022/07/11 07:08:13;;;;;;;9.02;3.95;;;;;;;26.99;45.71;98850.22;5013764;28;20448;-66
2022/07/11 07:10:39;;;;;;;7.63;4.30;;;;;;;26.97;45.72;98850.50;5013830;28;20389;-68
2022/07/11 07:13:04;;;;;;;7.60;3.65;;;;;;;26.96;45.88;98848.84;5007146;28;20058;-69
2022/07/11 07:15:29;;;;;;;8.60;3.88;;;;;;;26.97;45.96;98847.78;5011637;28;20493;-68
2022/07/11 07:17:55;;;;;;;12.25;3.65;;;;;;;26.99;45.86;98851.03;5013128;28;20505;-68
2022/07/11 07:20:20;;;;;;;9.93;3.25;;;;;;;27.01;46.00;98854.34;5013203;28;20473;-68
2022/07/11 07:22:46;;;;;;;5.18;4.45;;;;;;;27.02;45.79;98849.75;5013227;28;20549;-68
2022/07/11 07:25:11;;;;;;;6.97;4.13;;;;;;;27.02;45.97;98838.88;5013347;28;20040;-68
2022/07/11 07:27:37;;;;;;;5.68;4.40;;;;;;;26.99;45.88;98833.94;5013457;28;20034;-68
2022/07/11 07:30:03;;;;;;;7.80;3.85;;;;;;;26.98;45.97;98841.28;5011335;28;20037;-68
2022/07/11 07:32:28;;;;;;;25.27;4.22;;;;;;;27.00;46.17;98844.53;5013515;28;20041;-68
2022/07/11 07:34:53;;;;;;;8.50;4.40;;;;;;;26.98;46.13;98843.16;5000170;28;20088;-69
2022/07/11 07:37:19;;;;;;;6.07;4.15;;;;;;;26.96;46.14;98835.25;5012554;28;20645;-67
2022/07/11 07:39:44;;;;;;;15.98;4.75;;;;;;;26.98;46.25;98830.41;5013309;28;20440;-68
2022/07/11 07:42:10;;;;;;;7.13;4.35;;;;;;;27.01;46.49;98837.25;5012955;28;20038;-68
2022/07/11 07:44:35;;;;;;;7.38;4.40;;;;;;;27.05;46.26;98827.53;5011865;28;20029;-67
2022/07/11 07:47:01;;;;;;;5.25;3.95;;;;;;;27.07;46.15;98836.22;5012807;28;20123;-69
2022/07/11 07:49:27;;;;;;;5.85;4.88;;;;;;;27.07;46.04;98831.63;5013370;28;20025;-68
2022/07/11 07:51:52;;;;;;;9.50;4.40;;;;;;;27.08;45.98;98827.84;5012277;28;20057;-68
2022/07/11 07:54:18;;;;;;;5.45;3.55;;;;;;;27.08;46.02;98827.84;5012586;28;20040;-68
2022/07/11 07:56:43;;;;;;;6.13;3.83;;;;;;;27.08;46.16;98830.56;5012603;28;20092;-68
2022/07/11 07:59:10;;;;;;;7.65;3.90;;;;;;;27.11;46.18;98831.97;5012976;28;20038;-68
2022/07/11 08:01:35;;;;;;;8.40;4.28;;;;;;;27.10;46.13;98825.72;5012710;28;20030;-68
2022/07/11 08:04:05;;;;;;;7.15;3.63;;;;;;;27.10;46.19;98824.88;5012421;28;20544;-69
2022/07/11 08:06:31;;;;;;;7.47;3.85;;;;;;;27.10;46.36;98830.31;5011320;28;20037;-68
2022/07/11 08:08:57;;;;;;;7.80;3.83;;;;;;;27.10;46.31;98833.88;5013058;28;20116;-68
2022/07/11 08:11:23;;;;;;;4.18;3.45;;;;;;;27.11;46.38;98826.53;5011904;28;20038;-68
2022/07/11 08:13:49;;;;;;;6.70;3.40;;;;;;;27.11;46.37;98835.53;5011273;28;20524;-68
2022/07/11 08:16:14;;;;;;;4.22;3.58;;;;;;;27.12;46.38;98825.47;5012456;28;20458;-68
2022/07/11 08:18:40;;;;;;;5.13;3.80;;;;;;;27.11;46.37;98826.53;5012645;28;20069;-67
2022/07/11 08:21:05;;;;;;;7.75;3.70;;;;;;;27.13;46.06;98827.13;5010418;28;20068;-68
2022/07/11 08:23:31;;;;;;;5.18;3.22;;;;;;;27.18;45.60;98831.78;5011942;28;20413;-67
2022/07/11 08:25:56;;;;;;;4.97;3.72;;;;;;;27.22;45.19;98825.63;5012654;28;20041;-68
2022/07/11 08:28:22;;;;;;;4.63;3.13;;;;;;;27.26;45.21;98821.34;5012740;28;20084;-67
2022/07/11 08:30:47;;;;;;;9.63;3.75;;;;;;;27.26;45.06;98824.06;5012142;28;20042;-68
2022/07/11 08:33:13;;;;;;;7.10;3.22;;;;;;;27.26;45.37;98812.38;5008604;28;20048;-67
2022/07/11 08:35:39;;;;;;;4.93;3.47;;;;;;;27.26;45.50;98807.75;5029846;28;20061;-67
2022/07/11 08:38:04;;;;;;;40.55;4.63;;;;;;;27.29;44.82;98811.88;5017766;28;20460;-68
2022/07/11 08:40:30;;;;;;;9.32;3.42;;;;;;;27.32;45.00;98810.56;5012210;28;20533;-68
2022/07/11 08:42:57;;;;;;;4.78;3.70;;;;;;;27.35;45.44;98804.63;5011648;28;20076;-67
2022/07/11 08:45:28;;;;;;;6.70;3.63;;;;;;;27.37;45.27;98805.19;5009992;28;20044;-68
2022/07/11 08:47:54;;;;;;;10.38;3.70;;;;;;;27.38;44.84;98804.13;5011898;28;20501;-67
2022/07/11 08:50:21;;;;;;;8.57;4.68;;;;;;;27.41;45.25;98814.50;5011955;28;20050;-68
2022/07/11 08:52:47;;;;;;;8.98;3.13;;;;;;;27.40;44.51;98802.81;5011840;28;20091;-68
2022/07/11 08:55:12;;;;;;;5.45;3.30;;;;;;;27.42;44.36;98800.66;5003997;28;20121;-68
2022/07/11 08:57:38;;;;;;;6.10;3.33;;;;;;;27.41;44.66;98804.47;5001112;28;20034;-68
2022/07/11 09:00:07;;;;;;;7.82;3.55;;;;;;;27.40;44.75;98810.97;5012652;28;20485;-68
2022/07/11 09:02:33;;;;;;;3.42;3.13;;;;;;;27.38;44.19;98799.53;5011014;28;20033;-67
2022/07/11 09:05:05;;;;;;;5.28;3.90;;;;;;;27.38;44.82;98799.53;5011913;28;20124;-67
2022/07/11 09:07:32;;;;;;;9.30;4.20;;;;;;;27.35;44.78;98800.03;5012025;28;20057;-67
2022/07/11 09:09:57;;;;;;;3.60;3.30;;;;;;;27.35;45.02;98796.50;5012310;28;20030;-67
2022/07/11 09:12:23;;;;;;;5.85;3.55;;;;;;;27.39;44.95;98800.34;5012138;28;20422;-68
2022/07/11 09:14:51;;;;;;;4.13;3.35;;;;;;;27.40;45.06;98797.38;5012160;28;20033;-67
2022/07/11 09:17:27;;;;;;;3.92;3.47;;;;;;;27.39;45.37;98795.75;5011845;28;20444;-67
2022/07/11 09:19:53;;;;;;;5.07;3.70;;;;;;;27.38;44.84;98782.38;5011711;28;20185;-66
2022/07/11 09:25:24;;;;;;;5.85;3.75;;;;;;;27.39;44.73;98795.75;5016289;28;20083;-68
2022/07/11 09:28:06;;;;;;;5.32;3.65;;;;;;;27.42;44.46;98787.06;5014990;28;20057;-67
2022/07/11 09:30:39;;;;;;;4.60;4.15;;;;;;;27.46;44.17;98782.00;5014816;28;20038;-68
2022/07/11 09:33:09;;;;;;;35.20;5.35;;;;;;;27.48;44.12;98777.16;5014797;28;20551;-68
2022/07/11 09:35:37;;;;;;;5.45;3.80;;;;;;;27.46;44.68;98781.16;5015631;28;20034;-68
2022/07/11 09:38:04;;;;;;;4.78;3.45;;;;;;;27.39;44.23;98775.88;5014234;28;20038;-68
2022/07/11 09:40:29;;;;;;;11.75;3.70;;;;;;;27.35;44.50;98772.84;5014503;28;20112;-69
2022/07/11 09:42:57;;;;;;;4.70;3.42;;;;;;;27.29;45.00;98773.84;5011699;28;20034;-69
2022/07/11 09:45:25;;;;;;;7.88;3.45;;;;;;;27.25;44.56;98770.00;5011740;28;20404;-68
2022/07/11 09:47:55;;;;;;;5.28;3.45;;;;;;;27.25;44.54;98764.56;5015517;28;20458;-67
2022/07/11 09:50:24;;;;;;;4.88;3.88;;;;;;;27.25;44.56;98762.66;5014633;28;20508;-67
2022/07/11 09:53:08;;;;;;;6.75;3.67;;;;;;;27.25;44.34;98754.53;5013620;28;20046;-67
2022/07/11 09:55:40;;;;;;;9.10;3.45;;;;;;;27.24;44.21;98744.72;5013614;28;20452;-68
2022/07/11 09:58:07;;;;;;;12.75;3.72;;;;;;;27.32;44.13;98759.78;5011860;28;20049;-67
2022/07/11 10:00:35;;;;;;;7.40;3.60;;;;;;;27.35;44.18;98750.31;5013824;28;20064;-68
2022/07/11 10:03:01;;;;;;;7.85;4.22;;;;;;;27.33;44.12;98739.69;5013178;28;20042;-67
2022/07/11 10:05:27;;;;;;;16.55;4.07;;;;;;;27.32;44.24;98757.06;5021168;28;20040;-67
2022/07/11 10:07:53;;;;;;;11.85;3.78;;;;;;;27.31;44.06;98741.03;5011761;28;20503;-69
2022/07/11 10:10:18;;;;;;;7.65;3.75;;;;;;;27.30;44.17;98753.75;5011450;28;20125;-70
2022/07/11 10:12:48;;;;;;;3.90;3.40;;;;;;;27.26;44.28;98748.00;5009360;28;20065;-68
2022/07/11 10:15:20;;;;;;;8.82;3.03;;;;;;;27.26;43.37;98731.72;5013987;28;20399;-69
2022/07/11 10:18:02;;;;;;;5.97;3.15;;;;;;;27.39;42.44;98743.28;5013901;28;20041;-69
2022/07/11 10:20:52;;;;;;;4.57;3.20;;;;;;;27.45;42.13;98753.19;5014427;28;20030;-69
2022/07/11 10:23:45;;;;;;;4.57;3.40;;;;;;;27.45;42.52;98746.91;5013837;28;20034;-67
2022/07/11 10:26:48;;;;;;;6.28;3.38;;;;;;;27.36;42.63;98746.50;5009870;28;20124;-69
2022/07/11 10:29:34;;;;;;;5.07;3.42;;;;;;;27.27;42.76;98736.09;5013964;28;20121;-70
2022/07/11 10:32:11;;;;;;;3.53;2.85;;;;;;;27.26;43.01;98741.78;5013692;28;20049;-69
2022/07/11 10:34:36;;;;;;;5.57;3.22;;;;;;;27.24;42.84;98733.06;5014074;28;20393;-69
2022/07/11 10:37:06;;;;;;;6.53;3.50;;;;;;;27.24;43.10;98739.28;5014133;28;20048;-69
2022/07/11 10:39:34;;;;;;;8.32;3.88;;;;;;;27.25;42.92;98734.69;5014315;28;20134;-69
2022/07/11 10:42:02;;;;;;;4.35;3.60;;;;;;;27.27;42.98;98738.78;5014186;28;20128;-69
2022/07/11 10:44:47;;;;;;;6.68;3.63;;;;;;;27.25;42.88;98731.97;5013975;28;20033;-68
2022/07/11 10:47:38;;;;;;;28.65;4.72;;;;;;;27.22;43.32;98748.78;5014025;28;20037;-68
2022/07/11 10:50:38;;;;;;;4.60;3.67;;;;;;;27.22;43.30;98757.72;5013849;28;20111;-68
2022/07/11 10:53:22;;;;;;;5.57;3.20;;;;;;;27.22;42.97;98740.63;5009022;28;20087;-69
2022/07/11 10:56:03;;;;;;;6.90;3.85;;;;;;;27.26;42.74;98747.22;5013419;28;20435;-68
2022/07/11 10:58:31;;;;;;;5.32;3.28;;;;;;;27.25;43.14;98734.69;5013384;28;20037;-68
2022/07/11 11:01:11;;;;;;;7.15;3.50;;;;;;;27.22;42.99;98730.56;5004273;28;20057;-69
2022/07/11 11:03:41;;;;;;;4.70;3.33;;;;;;;27.19;43.07;98738.41;5011643;28;20045;-69
2022/07/11 11:06:07;;;;;;;6.07;3.78;;;;;;;27.19;43.32;98725.66;5013118;28;20045;-70
2022/07/11 11:08:35;;;;;;;7.25;3.60;;;;;;;27.20;42.95;98737.34;5013855;28;20044;-69
2022/07/11 11:11:05;;;;;;;8.45;3.60;;;;;;;27.24;43.04;98743.91;5013722;28;20072;-70
2022/07/11 11:13:35;;;;;;;6.78;3.75;;;;;;;27.25;42.76;98734.69;5012254;28;20464;-68
2022/07/11 11:16:02;;;;;;;5.80;3.53;;;;;;;27.24;43.09;98733.06;5013559;28;20042;-70
2022/07/11 11:18:36;;;;;;;4.53;3.13;;;;;;;27.26;42.63;98736.34;5013219;28;20288;-69
2022/07/11 11:21:07;;;;;;;4.25;3.15;;;;;;;27.26;42.64;98722.75;5013537;28;20037;-69
2022/07/11 11:24:01;;;;;;;4.63;3.47;;;;;;;27.24;42.81;98719.47;5012913;28;20044;-69
2022/07/11 11:26:49;;;;;;;4.63;3.30;;;;;;;27.21;42.85;98737.06;5012889;28;20096;-69
2022/07/11 11:29:33;;;;;;;5.05;3.70;;;;;;;27.20;43.04;98721.88;4993760;28;20124;-69
2022/07/11 11:31:59;;;;;;;5.35;3.25;;;;;;;27.21;42.97;98722.69;4999269;28;20033;-68
2022/07/11 11:34:26;;;;;;;9.65;3.60;;;;;;;27.23;42.59;98725.97;5013844;28;20037;-69
2022/07/11 11:36:53;;;;;;;5.07;3.80;;;;;;;27.28;42.49;98720.59;5013174;28;20044;-69